Flight Track Log - Related Links

Times and Time Zones

All times are in EDT time to prevent confusion due to time zone crossing. See the AAL1326 flight status page for this flight to view local times or setup timezone preferences in your user account.

Time Position Orientation Groundspeed Altitude Reporting Facility
EDT Latitude Longitude Course Direction KTS MPH feet Rate Location/Type
Thu 04:40:42 PM 39.4030 -94.6140 113° Southeast 278 320 6,500  Level FlightAware
Thu 04:40:52 PM 39.4100 -94.5990 59° Northeast 287 330 7,100 2,880 Climbing FlightAware
Thu 04:41:00 PM 39.1656 -94.3800 113° Southeast  Level FlightAware
Thu 04:41:07 PM 39.4140 -94.5780 76° East 295 339 7,700  Level FlightAware
Thu 04:41:37 PM 39.3950 -94.5280 116° Southeast 299 344 9,400 2,743 Climbing FlightAware
Thu 04:42:17 PM 39.3540 -94.4750 135° Southeast 335 386 10,900 2,550 Climbing FlightAware
Thu 04:42:57 PM 39.3100 -94.4170 134° Southeast 353 406 12,800 3,000 Climbing FlightAware
Thu 04:43:27 PM 39.2760 -94.3700 133° Southeast 360 414 14,400 2,057 Climbing FlightAware
Thu 04:44:07 PM 39.2270 -94.3050 134° Southeast 374 430 15,200 1,309 Climbing FlightAware
Thu 04:44:22 PM 39.2120 -94.2750 123° Southeast 387 445 15,600 2,267 Climbing FlightAware
Thu 04:44:52 PM 39.1990 -94.2070 104° East 404 465 16,900 3,000 Climbing FlightAware
Thu 04:45:32 PM 39.1850 -94.1120 101° East 402 463 19,100 2,965 Climbing FlightAware
Thu 04:46:17 PM 39.1710 -94.0090 100° East 406 467 21,100 2,471 Climbing FlightAware
Thu 04:46:57 PM 39.1580 -93.9110 100° East 415 478 22,600 2,188 Climbing FlightAware
Thu 04:47:42 PM 39.1430 -93.7990 100° East 426 490 24,200 1,976 Climbing FlightAware
Thu 04:48:22 PM 39.1290 -93.6980 100° East 436 502 25,400 1,875 Climbing FlightAware
Thu 04:49:02 PM 39.1260 -93.5920 92° East 448 516 26,700 1,835 Climbing FlightAware
Thu 04:49:47 PM 39.1260 -93.4740 90° East 454 522 28,000 1,624 Climbing FlightAware
Thu 04:50:27 PM 39.1340 -93.3650 85° East 465 535 29,000 750 Climbing FlightAware
Thu 04:51:07 PM 39.1610 -93.2600 72° East 468 539 29,000  Level FlightAware
Thu 04:51:52 PM 39.1930 -93.1390 71° East 468 539 29,000  Level FlightAware
Thu 04:52:37 PM 39.2230 -93.0230 72° East 468 539 29,000  Level FlightAware
Thu 04:53:17 PM 39.2490 -92.9190 72° East 469 540 29,000  Level FlightAware
Thu 04:54:02 PM 39.2820 -92.7940 71° East 471 542 29,000  Level FlightAware
Thu 04:54:52 PM 39.3150 -92.6690 71° East 472 543 29,000  Level FlightAware
Thu 04:55:32 PM 39.3390 -92.5790 71° East 472 543 29,000  Level FlightAware
Thu 04:56:22 PM 39.3690 -92.4650 71° East 472 543 29,000  Level FlightAware
Thu 04:57:02 PM 39.3930 -92.3740 71° East 472 543 29,000  Level FlightAware
Thu 04:57:42 PM 39.4170 -92.2830 71° East 472 543 29,000 2,824 Level FlightAware
Thu 04:58:27 PM 39.4610 -92.1030 72° East 463 533 33,000 2,824 Climbing FlightAware
Thu 04:59:07 PM 39.5070 -92.0030 59° Northeast 467 537 33,000  Level FlightAware
Thu 04:59:47 PM 39.5490 -91.9170 58° Northeast 467 537 33,000  Level FlightAware
Thu 05:00:37 PM 39.6090 -91.7970 57° Northeast 468 539 33,000  Level FlightAware
Thu 05:01:27 PM 39.6680 -91.6740 58° Northeast 470 541 33,000  Level FlightAware
Thu 05:02:12 PM 39.7190 -91.5690 58° Northeast 471 542 33,000  Level FlightAware
Thu 05:02:47 PM 39.7620 -91.4800 58° Northeast 470 541 33,000  Level FlightAware
Thu 05:03:27 PM 39.8050 -91.3940 57° Northeast 470 541 33,000  Level FlightAware
Thu 05:04:17 PM 39.8650 -91.2670 58° Northeast 468 539 33,000  Level FlightAware
Thu 05:04:57 PM 39.9070 -91.1780 58° Northeast 468 539 33,000  Level FlightAware
Thu 05:05:37 PM 39.9560 -91.0770 58° Northeast 467 537 33,000  Level FlightAware
Thu 05:06:22 PM 40.0090 -90.9650 58° Northeast 467 537 33,000  Level FlightAware
Thu 05:07:02 PM 40.0550 -90.8670 58° Northeast 468 539 33,000  Level FlightAware
Thu 05:07:42 PM 40.1000 -90.7720 58° Northeast 469 540 33,000  Level FlightAware
Thu 05:08:27 PM 40.1500 -90.6660 58° Northeast 469 540 33,000  Level FlightAware
Thu 05:09:22 PM 40.2290 -90.5550 47° Northeast 467 537 33,000  Level FlightAware
Thu 05:10:02 PM 40.2990 -90.4820 38° Northeast 466 536 33,000  Level FlightAware
Thu 05:10:52 PM 40.3830 -90.3970 38° Northeast 464 534 33,000  Level FlightAware
Thu 05:11:32 PM 40.4520 -90.3260 38° Northeast 464 534 33,000  Level FlightAware
Thu 05:12:07 PM 40.5100 -90.2670 38° Northeast 463 533 33,000  Level FlightAware
Thu 05:12:57 PM 40.5940 -90.1800 38° Northeast 462 532 33,000  Level FlightAware
Thu 05:13:37 PM 40.6610 -90.1100 38° Northeast 460 529 33,000  Level FlightAware
Thu 05:14:22 PM 40.7380 -90.0300 38° Northeast 459 528 33,000  Level FlightAware
Thu 05:15:02 PM 40.8000 -89.9650 38° Northeast 457 526 33,000 -880 Level FlightAware
Thu 05:15:37 PM 40.8560 -89.9070 38° Northeast 454 522 31,900 -2,475 Descending FlightAware
Thu 05:16:22 PM 40.9360 -89.8240 38° Northeast 461 531 29,700 -2,965 Descending FlightAware
Thu 05:17:02 PM 41.0040 -89.7520 39° Northeast 466 536 27,700 -2,682 Descending FlightAware
Thu 05:17:47 PM 41.0780 -89.6740 38° Northeast 460 529 25,900 -2,259 Descending FlightAware
Thu 05:18:27 PM 41.1390 -89.6090 39° Northeast 453 521 24,500 -2,259 Descending FlightAware
Thu 05:19:12 PM 41.1960 -89.4980 56° Northeast 442 509 22,700 -2,200 Descending FlightAware
Thu 05:19:57 PM 41.2380 -89.3950 62° Northeast 433 498 21,200 -2,047 Descending FlightAware
Thu 05:20:37 PM 41.2750 -89.3010 62° Northeast 425 489 19,800 -2,025 Descending FlightAware
Thu 05:21:17 PM 41.3120 -89.2110 61° Northeast 416 479 18,500 -2,047 Descending FlightAware
Thu 05:22:02 PM 41.3530 -89.1090 62° Northeast 407 468 16,900 -1,976 Descending FlightAware
Thu 05:22:42 PM 41.3880 -89.0220 62° Northeast 401 461 15,700 -1,835 Descending FlightAware
Thu 05:23:27 PM 41.4250 -88.9280 62° Northeast 395 455 14,300 -1,906 Descending FlightAware
Thu 05:24:07 PM 41.4590 -88.8420 62° Northeast 387 445 13,000 -1,875 Descending FlightAware
Thu 05:24:47 PM 41.4920 -88.7580 62° Northeast 380 437 11,800 -1,412 Descending FlightAware
Thu 05:25:32 PM 41.5300 -88.6630 62° Northeast 368 423 11,000 -565 Descending FlightAware
Thu 05:26:12 PM 41.5610 -88.5840 62° Northeast 372 428 11,000  Level FlightAware
Thu 05:26:57 PM 41.5970 -88.4940 62° Northeast 368 423 11,000  Level FlightAware
Thu 05:27:37 PM 41.6370 -88.4190 54° Northeast 368 423 11,000  Level FlightAware
Thu 05:28:22 PM 41.6840 -88.3390 52° Northeast 342 394 11,000 -141 Level FlightAware
Thu 05:29:02 PM 41.7200 -88.2760 53° Northeast 307 353 10,800 -825 Descending FlightAware
Thu 05:29:42 PM 41.7540 -88.2180 52° Northeast 300 345 9,900 -1,457 Descending FlightAware
Thu 05:30:12 PM 41.7800 -88.1730 52° Northeast 300 345 9,100 -1,500 Descending FlightAware
Thu 05:30:42 PM 41.8050 -88.1310 51° Northeast 302 348 8,400 -1,527 Descending FlightAware
Thu 05:31:07 PM 41.8270 -88.0920 53° Northeast 304 350 7,700 -1,650 Descending FlightAware
Thu 05:31:22 PM 41.8420 -88.0720 45° Northeast 306 352 7,300 -1,200 Descending FlightAware
Thu 05:31:37 PM 41.8600 -88.0610 24° Northeast 305 351 7,100 -327 Descending FlightAware
Thu 05:32:17 PM 41.9130 -88.0610 360° North 289 333 7,000 -86 Descending FlightAware
Thu 05:32:47 PM 41.9520 -88.0620 359° North 264 304 7,000  Level FlightAware
Thu 05:33:12 PM 41.9830 -88.0620 360° North 260 299 7,000 -150 Level FlightAware
Thu 05:33:27 PM 41.9990 -88.0690 342° North 252 290 6,900 -933 Descending FlightAware
Thu 05:33:57 PM 42.0270 -88.0960 324° Northwest 247 284 6,300 -873 Descending FlightAware
Thu 05:34:22 PM 42.0500 -88.1180 325° Northwest 226 260 6,100 -514 Descending FlightAware
Thu 05:34:32 PM 42.0570 -88.1250 323° Northwest 221 254 6,000 -800 Descending FlightAware
Thu 05:35:07 PM 42.0870 -88.1540 324° Northwest 203 234 5,500 -800 Descending FlightAware
Thu 05:35:32 PM 42.1060 -88.1690 330° Northwest 206 237 5,200 -982 Descending FlightAware
Thu 05:36:02 PM 42.1320 -88.1550 22° Northeast 209 241 4,600 -1,200 Descending FlightAware
Thu 05:36:17 PM 42.1420 -88.1400 48° Northeast 202 232 4,300 -1,200 Descending FlightAware
Thu 05:36:27 PM 42.1440 -88.1290 76° East 195 224 4,100 -686 Descending FlightAware
Thu 05:36:52 PM 42.1380 -88.1040 108° East 180 207 3,900 -533 Descending FlightAware
Thu 05:37:12 PM 42.1260 -88.0860 132° Southeast 173 199 3,700 -667 Descending FlightAware
Thu 05:37:37 PM 42.1110 -88.0690 140° Southeast 170 196 3,400 -873 Descending FlightAware
Thu 05:38:07 PM 42.0930 -88.0490 140° Southeast 168 193 2,900 -900 Descending FlightAware
Thu 05:38:37 PM 42.0750 -88.0290 140° Southeast 164 189 2,500 -545 Descending FlightAware
Thu 05:39:02 PM 42.0610 -88.0130 140° Southeast 159 183 2,400 -436 Descending FlightAware
Thu 05:39:32 PM 42.0440 -87.9930 139° Southeast 151 174 2,100 -655 Descending FlightAware
Thu 05:39:57 PM 42.0320 -87.9800 141° Southeast 143 165 1,800 -764 Descending FlightAware
Thu 05:40:27 PM 42.0160 -87.9620 140° Southeast 144 166 1,400 -700 Descending FlightAware
Thu 05:40:57 PM 42.0020 -87.9460 140° Southeast 147 169 1,100 -764 Descending FlightAware
Thu 05:41:22 PM 41.9880 -87.9300 140° Southeast 147 169 700 -960 Descending FlightAware

Login

Don't have an account? Register now (free) for customized features, flight alerts, and more!